createdAt,value
2023-01-17T00:01:14.273Z,93380.16
2023-01-17T00:03:15.784Z,93363.72
2023-01-17T00:05:35.765Z,93395.19
2023-01-17T00:07:55.651Z,93375.41
2023-01-17T00:09:58.254Z,93353.19
2023-01-17T00:12:00.332Z,93382.09
2023-01-17T00:14:01.793Z,93382.13
2023-01-17T00:16:03.332Z,93374.19
2023-01-17T00:18:04.891Z,93372.13
2023-01-17T00:20:25.015Z,93361.91
2023-01-17T00:22:45.835Z,93360.78
2023-01-17T00:25:05.752Z,93366.34
2023-01-17T00:27:12.787Z,93372.88
2023-01-17T00:29:14.221Z,93379.31
2023-01-17T00:31:16.012Z,93377.78
2023-01-17T00:33:17.711Z,93366.38
2023-01-17T00:35:19.464Z,93358.44
2023-01-17T00:37:20.939Z,93384.56
2023-01-17T00:39:22.317Z,93361.38
2023-01-17T00:41:23.774Z,93380.50
2023-01-17T00:43:43.807Z,93353.59
2023-01-17T00:46:04.177Z,93384.09
2023-01-17T00:48:24.396Z,93378.00
2023-01-17T00:50:44.319Z,93387.28
2023-01-17T00:53:04.236Z,93375.00
2023-01-17T00:55:24.751Z,93374.50
2023-01-17T00:57:44.642Z,93376.78
2023-01-17T01:00:04.995Z,93385.28
2023-01-17T01:02:27.593Z,93396.81
2023-01-17T01:04:48.739Z,93397.19
2023-01-17T01:07:08.627Z,93364.38
2023-01-17T01:09:28.541Z,93404.50
2023-01-17T01:11:48.792Z,93408.38
2023-01-17T01:14:08.724Z,93414.72
2023-01-17T01:16:29.267Z,93384.88
2023-01-17T01:18:49.371Z,93387.47
2023-01-17T01:21:09.302Z,93381.50
2023-01-17T01:23:29.216Z,93398.44
2023-01-17T01:25:49.361Z,93384.22
2023-01-17T01:28:09.253Z,93384.16
2023-01-17T01:30:29.531Z,93365.22
2023-01-17T01:32:53.363Z,93360.63
2023-01-17T01:34:54.840Z,93348.47
2023-01-17T01:36:56.366Z,93352.91
2023-01-17T01:38:57.939Z,93338.53
2023-01-17T01:40:59.432Z,93342.63
2023-01-17T01:43:03.209Z,93338.16
2023-01-17T01:45:16.557Z,93338.69
2023-01-17T01:47:22.972Z,93322.81
2023-01-17T01:49:25.120Z,93307.88
2023-01-17T01:51:28.342Z,93310.78
2023-01-17T01:53:29.904Z,93291.78
2023-01-17T01:55:33.065Z,93310.59
2023-01-17T01:57:35.830Z,93312.25
2023-01-17T01:59:38.399Z,93319.09
2023-01-17T02:01:40.090Z,93331.44
2023-01-17T02:03:41.717Z,93322.41
2023-01-17T02:05:43.768Z,93329.59
2023-01-17T02:07:50.692Z,93317.91
2023-01-17T02:09:52.581Z,93317.34
2023-01-17T02:11:54.118Z,93308.16
2023-01-17T02:13:55.598Z,93317.44
2023-01-17T02:16:03.927Z,93324.31
2023-01-17T02:18:11.553Z,93321.41
2023-01-17T02:20:13.101Z,93317.75
2023-01-17T02:22:26.939Z,93316.00
2023-01-17T02:24:47.060Z,93318.63
2023-01-17T02:26:51.305Z,93311.88
2023-01-17T02:29:01.605Z,93310.59
2023-01-17T02:31:04.696Z,93309.94
2023-01-17T02:33:08.352Z,93315.78
2023-01-17T02:35:12.966Z,93297.44
2023-01-17T02:37:14.379Z,93307.81
2023-01-17T02:39:17.715Z,93299.97
2023-01-17T02:41:28.271Z,93317.50
2023-01-17T02:43:29.783Z,93322.06
2023-01-17T02:45:31.322Z,93309.00
2023-01-17T02:47:32.891Z,93302.47
2023-01-17T02:49:34.359Z,93299.19
2023-01-17T02:51:39.001Z,93297.94
2023-01-17T02:53:42.445Z,93301.53
2023-01-17T02:55:46.839Z,93286.03
2023-01-17T02:57:48.293Z,93284.16
2023-01-17T02:59:54.047Z,93277.56
2023-01-17T03:02:00.507Z,93275.97
2023-01-17T03:04:08.232Z,93298.34
2023-01-17T03:06:12.042Z,93306.31
2023-01-17T03:08:13.564Z,93282.50
2023-01-17T03:10:15.124Z,93281.56
2023-01-17T03:12:16.635Z,93265.84
2023-01-17T03:14:18.100Z,93276.88
2023-01-17T03:16:21.238Z,93255.47
2023-01-17T03:18:22.784Z,93258.03
2023-01-17T03:20:24.262Z,93263.53
2023-01-17T03:22:25.775Z,93250.38
2023-01-17T03:24:27.221Z,93291.63
2023-01-17T03:26:28.696Z,93248.09
2023-01-17T03:28:30.168Z,93281.06
2023-01-17T03:30:31.690Z,93284.03
2023-01-17T03:32:33.205Z,93284.19
2023-01-17T03:34:34.694Z,93290.16
2023-01-17T03:36:36.122Z,93282.75
2023-01-17T03:38:37.694Z,93277.13
2023-01-17T03:40:39.167Z,93283.59
2023-01-17T03:42:40.751Z,93287.06
2023-01-17T03:44:42.234Z,93296.88
2023-01-17T03:46:44.545Z,93275.34
2023-01-17T03:48:46.102Z,93292.00
2023-01-17T03:50:51.046Z,93295.75
2023-01-17T03:52:52.529Z,93281.22
2023-01-17T03:54:54.064Z,93287.50
2023-01-17T03:56:55.569Z,93264.81
2023-01-17T03:58:58.564Z,93257.69
2023-01-17T04:01:00.155Z,93275.16
2023-01-17T04:03:01.777Z,93302.59
2023-01-17T04:05:03.431Z,93278.22
2023-01-17T04:07:04.924Z,93275.28
2023-01-17T04:09:06.344Z,93303.31
2023-01-17T04:11:07.895Z,93297.38
2023-01-17T04:13:09.343Z,93296.31
2023-01-17T04:15:11.017Z,93285.56
2023-01-17T04:17:12.500Z,93309.34
2023-01-17T04:19:14.058Z,93314.09
2023-01-17T04:21:15.558Z,93302.19
2023-01-17T04:23:17.403Z,93332.66
2023-01-17T04:25:20.021Z,93336.34
2023-01-17T04:27:21.522Z,93318.59
2023-01-17T04:29:22.950Z,93306.50
2023-01-17T04:31:24.498Z,93294.19
2023-01-17T04:33:25.983Z,93314.44
2023-01-17T04:35:29.120Z,93299.91
2023-01-17T04:37:30.561Z,93310.47
2023-01-17T04:39:32.053Z,93295.19
2023-01-17T04:41:34.179Z,93300.22
2023-01-17T04:43:35.747Z,93325.69
2023-01-17T04:45:38.849Z,93326.69
2023-01-17T04:47:40.590Z,93294.44
2023-01-17T04:49:44.077Z,93316.50
2023-01-17T04:51:45.711Z,93313.31
2023-01-17T04:53:47.202Z,93296.91
2023-01-17T04:55:48.723Z,93321.66
2023-01-17T04:57:50.204Z,93349.75
2023-01-17T04:59:53.654Z,93348.03
2023-01-17T05:01:55.152Z,93345.78
2023-01-17T05:03:56.711Z,93347.78
2023-01-17T05:05:58.418Z,93342.28
2023-01-17T05:07:59.957Z,93353.50
2023-01-17T05:10:01.420Z,93343.63
2023-01-17T05:12:02.953Z,93346.25
2023-01-17T05:14:04.653Z,93351.66
2023-01-17T05:16:06.417Z,93370.13
2023-01-17T05:18:10.925Z,93367.72
2023-01-17T05:20:12.460Z,93351.84
2023-01-17T05:22:17.238Z,93358.50
2023-01-17T05:24:18.885Z,93341.75
2023-01-17T05:26:20.389Z,93333.34
2023-01-17T05:28:21.874Z,93320.31
2023-01-17T05:30:23.415Z,93335.44
2023-01-17T05:32:24.919Z,93324.69
2023-01-17T05:34:26.378Z,93327.91
2023-01-17T05:36:27.901Z,93333.84
2023-01-17T05:38:29.598Z,93316.88
2023-01-17T05:40:32.087Z,93327.69
2023-01-17T05:42:33.926Z,93331.16
2023-01-17T05:44:35.396Z,93331.56
2023-01-17T05:46:37.120Z,93327.72
2023-01-17T05:48:38.626Z,93315.78
2023-01-17T05:50:40.101Z,93302.41
2023-01-17T05:52:41.748Z,93304.72
2023-01-17T05:54:43.248Z,93289.16
2023-01-17T05:56:44.753Z,93282.66
2023-01-17T05:58:46.259Z,93281.72
2023-01-17T06:00:47.951Z,93279.16
2023-01-17T06:02:49.528Z,93300.22
2023-01-17T06:04:51.166Z,93294.41
2023-01-17T06:06:52.697Z,93287.28
2023-01-17T06:08:54.155Z,93288.75
2023-01-17T06:10:55.775Z,93276.94
2023-01-17T06:13:01.288Z,93283.63
2023-01-17T06:15:02.858Z,93267.41
2023-01-17T06:17:04.800Z,93268.91
2023-01-17T06:19:06.321Z,93282.53
2023-01-17T06:21:07.828Z,93239.06
2023-01-17T06:23:12.844Z,93250.75
2023-01-17T06:25:14.451Z,93243.59
2023-01-17T06:27:16.044Z,93273.91
2023-01-17T06:29:17.523Z,93289.00
2023-01-17T06:31:19.068Z,93302.13
2023-01-17T06:33:20.610Z,93291.28
2023-01-17T06:35:22.469Z,93293.09
2023-01-17T06:37:24.431Z,93316.63
2023-01-17T06:39:25.897Z,93301.69
2023-01-17T06:41:27.448Z,93309.31
2023-01-17T06:43:32.867Z,93330.56
2023-01-17T06:45:34.668Z,93340.13
2023-01-17T06:47:39.715Z,93304.03
2023-01-17T06:49:41.238Z,93327.44
2023-01-17T06:51:43.716Z,93334.28
2023-01-17T06:53:45.377Z,93337.69
2023-01-17T06:55:47.046Z,93315.44
2023-01-17T06:57:50.163Z,93324.72
2023-01-17T06:59:51.651Z,93342.94
2023-01-17T07:01:53.494Z,93329.31
2023-01-17T07:03:54.999Z,93343.75
2023-01-17T07:05:56.466Z,93325.09
2023-01-17T07:07:58.029Z,93328.50
2023-01-17T07:10:00.459Z,93333.06
2023-01-17T07:12:02.167Z,93313.88
2023-01-17T07:14:03.987Z,93323.44
2023-01-17T07:16:05.930Z,93327.16
2023-01-17T07:18:07.611Z,93306.13
2023-01-17T07:20:09.592Z,93317.81
2023-01-17T07:22:11.108Z,93308.97
2023-01-17T07:24:12.693Z,93309.75
2023-01-17T07:26:14.654Z,93295.34
2023-01-17T07:28:16.126Z,93309.69
2023-01-17T07:30:17.711Z,93303.16
2023-01-17T07:32:19.190Z,93319.41
2023-01-17T07:34:20.684Z,93306.66
2023-01-17T07:36:22.948Z,93308.75
2023-01-17T07:38:24.461Z,93324.16
2023-01-17T07:40:27.044Z,93332.19
2023-01-17T07:42:28.632Z,93313.06
2023-01-17T07:44:30.153Z,93296.28
2023-01-17T07:46:31.737Z,93285.56
2023-01-17T07:48:33.306Z,93290.44
2023-01-17T07:50:34.919Z,93312.19
2023-01-17T07:52:36.384Z,93317.63
2023-01-17T07:54:37.965Z,93304.84
2023-01-17T07:56:40.110Z,93306.41
2023-01-17T07:58:41.667Z,93304.88
2023-01-17T08:00:44.986Z,93297.91
2023-01-17T08:02:46.604Z,93305.53
2023-01-17T08:04:48.253Z,93294.53
2023-01-17T08:06:51.985Z,93296.16
2023-01-17T08:08:59.034Z,93302.28
2023-01-17T08:11:00.558Z,93319.03
2023-01-17T08:13:02.118Z,93324.31
2023-01-17T08:15:03.687Z,93281.47
2023-01-17T08:17:13.698Z,93338.72
2023-01-17T08:19:15.521Z,93321.25
2023-01-17T08:21:17.339Z,93327.34
2023-01-17T08:23:18.828Z,93324.72
2023-01-17T08:25:20.571Z,93334.84
2023-01-17T08:27:22.060Z,93332.22
2023-01-17T08:29:23.972Z,93337.09
2023-01-17T08:31:25.573Z,93327.84
2023-01-17T08:33:27.118Z,93333.53
2023-01-17T08:35:28.901Z,93327.09
2023-01-17T08:37:30.478Z,93330.94
2023-01-17T08:39:31.956Z,93321.28
2023-01-17T08:41:33.419Z,93322.91
2023-01-17T08:43:34.995Z,93330.38
2023-01-17T08:45:36.624Z,93328.59
2023-01-17T08:47:38.343Z,93318.91
2023-01-17T08:49:39.868Z,93329.19
2023-01-17T08:51:41.571Z,93316.28
2023-01-17T08:53:43.031Z,93312.84
2023-01-17T08:55:44.600Z,93305.22
2023-01-17T08:57:46.816Z,93309.25
2023-01-17T08:59:48.549Z,93306.22
2023-01-17T09:01:52.418Z,93300.16
2023-01-17T09:03:54.094Z,93305.00
2023-01-17T09:06:05.878Z,93302.16
2023-01-17T09:08:07.570Z,93293.72
2023-01-17T09:10:09.447Z,93315.47
2023-01-17T09:12:10.997Z,93322.19
2023-01-17T09:14:12.915Z,93290.72
2023-01-17T09:16:14.458Z,93303.06
2023-01-17T09:18:15.940Z,93298.44
2023-01-17T09:20:17.597Z,93286.31
2023-01-17T09:22:19.127Z,93273.81
2023-01-17T09:24:20.638Z,93284.72
2023-01-17T09:26:26.366Z,93311.75
2023-01-17T09:28:27.862Z,93297.44
2023-01-17T09:30:29.369Z,93282.34
2023-01-17T09:32:30.933Z,93300.72
2023-01-17T09:34:32.360Z,93269.22
2023-01-17T09:36:34.073Z,93271.44
2023-01-17T09:38:36.220Z,93260.91
2023-01-17T09:40:38.888Z,93261.53
2023-01-17T09:42:40.368Z,93281.13
2023-01-17T09:44:42.968Z,93290.22
2023-01-17T09:46:45.345Z,93284.16
2023-01-17T09:48:46.892Z,93305.34
2023-01-17T09:50:50.869Z,93295.84
2023-01-17T09:53:00.786Z,93321.72
2023-01-17T09:55:02.788Z,93299.09
2023-01-17T09:57:17.230Z,93336.66
2023-01-17T09:59:21.410Z,93308.59
2023-01-17T10:01:23.067Z,93315.84
2023-01-17T10:03:43.608Z,93313.22
2023-01-17T10:06:03.697Z,93315.06
2023-01-17T10:08:14.190Z,93329.59
2023-01-17T10:10:34.570Z,93322.09
2023-01-17T10:12:42.108Z,93298.09
2023-01-17T10:14:46.420Z,93302.13
2023-01-17T10:17:03.023Z,93310.59
2023-01-17T10:19:10.417Z,93331.41
2023-01-17T10:21:11.924Z,93314.44
2023-01-17T10:23:35.214Z,93328.97
2023-01-17T10:25:40.819Z,93328.78
2023-01-17T10:27:45.586Z,93328.34
2023-01-17T10:29:48.030Z,93328.16
2023-01-17T10:31:51.793Z,93330.78
2023-01-17T10:33:53.633Z,93316.66
2023-01-17T10:35:58.174Z,93339.09
2023-01-17T10:37:59.731Z,93333.41
2023-01-17T10:40:03.190Z,93340.69
2023-01-17T10:42:13.115Z,93328.34
2023-01-17T10:44:33.409Z,93323.69
2023-01-17T10:46:35.141Z,93325.72
2023-01-17T10:48:36.716Z,93321.28
2023-01-17T10:50:58.442Z,93320.06
2023-01-17T10:53:04.358Z,93324.53
2023-01-17T10:55:09.676Z,93309.56
2023-01-17T10:57:15.543Z,93321.06
2023-01-17T10:59:20.221Z,93328.75
2023-01-17T11:01:21.988Z,93307.13
2023-01-17T11:03:24.750Z,93309.34
2023-01-17T11:05:28.443Z,93308.97
2023-01-17T11:07:30.003Z,93308.38
2023-01-17T11:09:38.887Z,93293.03
2023-01-17T11:11:52.694Z,93298.88
2023-01-17T11:13:54.231Z,93295.63
2023-01-17T11:15:58.181Z,93295.81
2023-01-17T11:18:03.402Z,93279.63
2023-01-17T11:20:21.087Z,93275.00
2023-01-17T11:22:22.719Z,93275.59
2023-01-17T11:24:47.921Z,93271.34
2023-01-17T11:26:49.661Z,93252.53
2023-01-17T11:28:52.299Z,93254.97
2023-01-17T11:30:57.802Z,93262.84
2023-01-17T11:33:09.042Z,93249.53
2023-01-17T11:35:13.371Z,93268.28
2023-01-17T11:37:17.889Z,93242.41
2023-01-17T11:39:19.404Z,93240.38
2023-01-17T11:41:21.057Z,93248.25
2023-01-17T11:43:26.233Z,93225.06
2023-01-17T11:45:28.725Z,93229.09
2023-01-17T11:47:30.467Z,93219.56
2023-01-17T11:49:32.027Z,93207.47
2023-01-17T11:51:34.110Z,93218.56
2023-01-17T11:53:37.159Z,93226.63
2023-01-17T11:55:38.758Z,93213.13
2023-01-17T11:57:40.297Z,93209.03
2023-01-17T11:59:45.212Z,93212.50
2023-01-17T12:01:55.922Z,93221.56
2023-01-17T12:04:03.510Z,93193.84
2023-01-17T12:06:13.680Z,93202.72
2023-01-17T12:08:26.961Z,93224.53
2023-01-17T12:10:36.684Z,93209.78
2023-01-17T12:12:56.679Z,93204.91
2023-01-17T12:15:16.710Z,93185.34
2023-01-17T12:17:33.302Z,93189.75
2023-01-17T12:19:34.873Z,93176.84
2023-01-17T12:21:39.462Z,93164.97
2023-01-17T12:23:44.011Z,93164.13
2023-01-17T12:25:45.558Z,93174.66
2023-01-17T12:27:53.001Z,93162.34
2023-01-17T12:30:00.600Z,93158.31
2023-01-17T12:32:08.055Z,93161.53
2023-01-17T12:34:24.570Z,93157.06
2023-01-17T12:36:26.044Z,93142.66
2023-01-17T12:38:33.483Z,93163.84
2023-01-17T12:40:42.919Z,93158.34
2023-01-17T12:42:48.782Z,93163.56
2023-01-17T12:45:09.102Z,93155.25
2023-01-17T12:47:10.914Z,93141.53
2023-01-17T12:49:21.496Z,93155.25
2023-01-17T12:51:29.059Z,93159.91
2023-01-17T12:53:32.824Z,93178.06
2023-01-17T12:55:42.151Z,93183.56
2023-01-17T12:57:45.457Z,93120.31
2023-01-17T12:59:56.272Z,93115.75
2023-01-17T13:01:58.751Z,93118.47
2023-01-17T13:04:03.645Z,93134.09
2023-01-17T13:06:05.268Z,93151.66
2023-01-17T13:08:22.064Z,93158.09
2023-01-17T13:10:23.582Z,93170.22
2023-01-17T13:12:25.157Z,93139.50
2023-01-17T13:14:45.359Z,93152.06
2023-01-17T13:16:57.916Z,93141.81
2023-01-17T13:19:01.708Z,93154.09
2023-01-17T13:21:24.101Z,93158.09
2023-01-17T13:23:28.308Z,93144.72
2023-01-17T13:25:32.525Z,93108.78
2023-01-17T13:27:43.292Z,93125.38
2023-01-17T13:29:44.809Z,93127.75
2023-01-17T13:31:48.314Z,93135.84
2023-01-17T13:34:10.279Z,93134.00
2023-01-17T13:36:18.260Z,93146.75
2023-01-17T13:38:25.975Z,93155.59
2023-01-17T13:40:42.540Z,93140.44
2023-01-17T13:42:50.084Z,93134.81
2023-01-17T13:44:51.601Z,93121.91
2023-01-17T13:47:01.067Z,93138.22
2023-01-17T13:49:23.457Z,93149.09
2023-01-17T13:51:26.096Z,93157.59
2023-01-17T13:53:27.725Z,93151.56
2023-01-17T13:55:43.780Z,93162.69
2023-01-17T13:57:46.827Z,93176.47
2023-01-17T13:59:48.346Z,93175.06
2023-01-17T14:01:50.326Z,93175.88
2023-01-17T14:03:52.071Z,93171.88
2023-01-17T14:05:56.840Z,93170.66
2023-01-17T14:08:04.488Z,93178.94
2023-01-17T14:10:29.336Z,93184.00
2023-01-17T14:12:31.521Z,93154.94
2023-01-17T14:14:42.833Z,93148.81
2023-01-17T14:16:46.259Z,93163.13
2023-01-17T14:18:48.148Z,93159.50
2023-01-17T14:20:50.207Z,93165.75
2023-01-17T14:22:53.462Z,93163.97
2023-01-17T14:25:15.100Z,93165.34
2023-01-17T14:27:16.860Z,93173.28
2023-01-17T14:29:37.116Z,93163.19
2023-01-17T14:31:38.657Z,93151.06
2023-01-17T14:33:40.701Z,93136.28
2023-01-17T14:35:50.236Z,93162.81
2023-01-17T14:37:52.405Z,93143.63
2023-01-17T14:39:53.897Z,93167.09
2023-01-17T14:41:55.394Z,93154.97
2023-01-17T14:43:56.864Z,93133.56
2023-01-17T14:46:16.824Z,93128.25
2023-01-17T14:48:20.111Z,93142.19
2023-01-17T14:50:23.174Z,93148.44
2023-01-17T14:52:24.662Z,93166.63
2023-01-17T14:54:26.462Z,93144.06
2023-01-17T14:56:28.707Z,93132.31
2023-01-17T14:58:34.369Z,93139.41
2023-01-17T15:00:38.421Z,93142.63
2023-01-17T15:02:43.375Z,93145.25
2023-01-17T15:04:45.140Z,93135.78
2023-01-17T15:06:48.171Z,93150.31
2023-01-17T15:08:49.822Z,93163.47
2023-01-17T15:10:56.259Z,93145.09
2023-01-17T15:12:57.955Z,93179.31
2023-01-17T15:14:59.503Z,93183.97
2023-01-17T15:17:09.907Z,93183.31
2023-01-17T15:19:12.864Z,93177.06
2023-01-17T15:21:19.299Z,93178.06
2023-01-17T15:23:21.385Z,93199.47
2023-01-17T15:25:22.834Z,93212.59
2023-01-17T15:27:25.113Z,93158.84
2023-01-17T15:29:27.303Z,93140.28
2023-01-17T15:31:44.987Z,93136.63
2023-01-17T15:33:47.131Z,93179.28
2023-01-17T15:35:48.620Z,93190.38
2023-01-17T15:37:53.875Z,93195.88
2023-01-17T15:40:13.981Z,93194.66
2023-01-17T15:42:25.871Z,93179.69
2023-01-17T15:44:42.625Z,93185.97
2023-01-17T15:46:48.890Z,93182.59
2023-01-17T15:48:51.768Z,93182.19
2023-01-17T15:50:59.812Z,93186.25
2023-01-17T15:53:02.284Z,93184.03
2023-01-17T15:55:13.272Z,93184.81
2023-01-17T15:57:14.851Z,93204.03
2023-01-17T15:59:22.925Z,93197.63
2023-01-17T16:01:25.145Z,93223.28
2023-01-17T16:03:29.407Z,93212.78
2023-01-17T16:05:33.377Z,93191.56
2023-01-17T16:07:35.468Z,93205.50
2023-01-17T16:09:41.695Z,93187.50
2023-01-17T16:11:44.087Z,93199.44
2023-01-17T16:13:47.396Z,93198.66
2023-01-17T16:15:49.040Z,93177.06
2023-01-17T16:17:52.166Z,93196.69
2023-01-17T16:19:53.934Z,93205.34
2023-01-17T16:21:57.128Z,93186.38
2023-01-17T16:23:59.345Z,93175.50
2023-01-17T16:26:00.800Z,93174.72
2023-01-17T16:28:02.516Z,93181.78
2023-01-17T16:30:04.372Z,93173.09
2023-01-17T16:32:08.851Z,93205.81
2023-01-17T16:34:12.035Z,93195.75
2023-01-17T16:36:15.042Z,93184.84
2023-01-17T16:38:17.653Z,93179.56
2023-01-17T16:40:19.804Z,93176.53
2023-01-17T16:42:21.264Z,93190.44
2023-01-17T16:44:22.855Z,93180.78
2023-01-17T16:46:25.098Z,93189.19
2023-01-17T16:48:45.745Z,93177.72
2023-01-17T16:50:52.370Z,93186.16
2023-01-17T16:52:54.336Z,93185.75
2023-01-17T16:54:55.825Z,93179.28
2023-01-17T16:56:57.330Z,93175.25
2023-01-17T16:58:59.028Z,93193.75
2023-01-17T17:01:00.568Z,93192.38
2023-01-17T17:03:02.111Z,93187.94
2023-01-17T17:05:05.503Z,93169.22
2023-01-17T17:07:06.954Z,93165.78
2023-01-17T17:09:08.556Z,93164.97
2023-01-17T17:11:13.324Z,93169.22
2023-01-17T17:13:14.825Z,93152.91
2023-01-17T17:15:16.423Z,93157.53
2023-01-17T17:17:17.997Z,93161.16
2023-01-17T17:19:19.800Z,93144.81
2023-01-17T17:21:21.355Z,93145.03
2023-01-17T17:23:22.843Z,93146.81
2023-01-17T17:25:24.386Z,93147.44
2023-01-17T17:27:27.867Z,93113.00
2023-01-17T17:29:29.376Z,93124.72
2023-01-17T17:31:31.038Z,93117.66
2023-01-17T17:33:32.539Z,93127.94
2023-01-17T17:35:34.917Z,93131.78
2023-01-17T17:37:37.529Z,93137.22
2023-01-17T17:39:39.135Z,93140.84
2023-01-17T17:41:44.574Z,93132.75
2023-01-17T17:43:46.421Z,93120.06
2023-01-17T17:45:48.834Z,93109.41
2023-01-17T17:47:50.530Z,93102.94
2023-01-17T17:49:52.203Z,93105.38
2023-01-17T17:51:53.637Z,93097.28
2023-01-17T17:53:55.573Z,93103.38
2023-01-17T17:56:01.880Z,93062.84
2023-01-17T17:58:03.405Z,93081.19
2023-01-17T18:00:05.327Z,93079.56
2023-01-17T18:02:10.866Z,93085.81
2023-01-17T18:04:12.550Z,93078.75
2023-01-17T18:06:17.493Z,93076.13
2023-01-17T18:08:19.029Z,93070.28
2023-01-17T18:10:20.578Z,93067.88
2023-01-17T18:12:22.165Z,93090.63
2023-01-17T18:14:24.480Z,93076.13
2023-01-17T18:16:36.063Z,93061.44
2023-01-17T18:18:39.171Z,93067.84
2023-01-17T18:20:40.764Z,93077.72
2023-01-17T18:22:42.368Z,93060.41
2023-01-17T18:24:43.908Z,93086.81
2023-01-17T18:26:52.083Z,93056.16
2023-01-17T18:28:54.078Z,93072.06
2023-01-17T18:30:55.745Z,93071.47
2023-01-17T18:32:57.436Z,93060.16
2023-01-17T18:34:58.949Z,93079.91
2023-01-17T18:37:00.507Z,93085.34
2023-01-17T18:39:02.359Z,93067.44
2023-01-17T18:41:04.901Z,93064.63
2023-01-17T18:43:06.371Z,93075.25
2023-01-17T18:45:08.346Z,93073.22
2023-01-17T18:47:11.065Z,93065.66
2023-01-17T18:49:13.087Z,93046.50
2023-01-17T18:51:15.830Z,93074.88
2023-01-17T18:53:17.692Z,93053.91
2023-01-17T18:55:19.175Z,93067.75
2023-01-17T18:57:20.667Z,93073.22
2023-01-17T18:59:23.595Z,93084.66
2023-01-17T19:01:26.175Z,93107.44
2023-01-17T19:03:28.948Z,93067.97
2023-01-17T19:05:30.454Z,93080.03
2023-01-17T19:07:33.335Z,93074.47
2023-01-17T19:09:35.165Z,93066.31
2023-01-17T19:11:36.940Z,93113.84
2023-01-17T19:13:38.866Z,93098.59
2023-01-17T19:15:41.762Z,93080.75
2023-01-17T19:17:43.195Z,93075.72
2023-01-17T19:19:44.803Z,93068.47
2023-01-17T19:21:46.450Z,93062.88
2023-01-17T19:23:48.248Z,93051.38
2023-01-17T19:25:53.848Z,93030.00
2023-01-17T19:27:55.671Z,93078.56
2023-01-17T19:29:57.358Z,93032.09
2023-01-17T19:31:59.009Z,93024.28
2023-01-17T19:34:00.587Z,93045.63
2023-01-17T19:36:03.784Z,93048.91
2023-01-17T19:38:05.425Z,93037.63
2023-01-17T19:40:08.317Z,93065.84
2023-01-17T19:42:15.508Z,93070.09
2023-01-17T19:44:17.068Z,93049.91
2023-01-17T19:46:19.701Z,93051.72
2023-01-17T19:48:22.570Z,93066.84
2023-01-17T19:50:24.107Z,93094.06
2023-01-17T19:52:26.366Z,93027.06
2023-01-17T19:54:27.823Z,93033.72
2023-01-17T19:56:29.515Z,93095.66
2023-01-17T19:58:31.434Z,93052.03
2023-01-17T20:00:45.939Z,93031.00
2023-01-17T20:02:47.928Z,93033.84
2023-01-17T20:04:49.589Z,93028.94
2023-01-17T20:06:51.121Z,93059.22
2023-01-17T20:08:52.651Z,93035.75
2023-01-17T20:10:54.426Z,93039.59
2023-01-17T20:12:55.925Z,93004.19
2023-01-17T20:14:57.418Z,93044.56
2023-01-17T20:16:58.947Z,93027.56
2023-01-17T20:19:02.550Z,93023.13
2023-01-17T20:21:04.329Z,92995.56
2023-01-17T20:23:06.407Z,93026.00
2023-01-17T20:25:08.642Z,93046.19
2023-01-17T20:27:10.229Z,92994.22
2023-01-17T20:29:12.998Z,92983.31
2023-01-17T20:31:20.720Z,93018.88
2023-01-17T20:33:23.210Z,93000.69
2023-01-17T20:35:24.772Z,93004.53
2023-01-17T20:37:26.267Z,93029.56
2023-01-17T20:39:27.896Z,93050.19
2023-01-17T20:41:33.373Z,93002.06
2023-01-17T20:43:35.064Z,93039.28
2023-01-17T20:45:36.547Z,93028.56
2023-01-17T20:47:38.212Z,93000.69
2023-01-17T20:49:41.604Z,93015.59
2023-01-17T20:51:44.399Z,93057.78
2023-01-17T20:53:46.678Z,93056.78
2023-01-17T20:55:48.587Z,93032.53
2023-01-17T20:57:50.418Z,92990.44
2023-01-17T20:59:52.383Z,93018.56
2023-01-17T21:01:53.915Z,92977.75
2023-01-17T21:03:55.479Z,92997.09
2023-01-17T21:06:06.238Z,92955.69
2023-01-17T21:08:07.721Z,92957.72
2023-01-17T21:10:09.722Z,92930.25
2023-01-17T21:12:11.145Z,92960.16
2023-01-17T21:14:12.580Z,92946.56
2023-01-17T21:16:16.471Z,92945.56
2023-01-17T21:18:18.689Z,92959.69
2023-01-17T21:20:20.316Z,92951.03
2023-01-17T21:22:21.756Z,92946.34
2023-01-17T21:24:23.649Z,92964.75
2023-01-17T21:26:28.421Z,92940.50
2023-01-17T21:28:31.088Z,92933.41
2023-01-17T21:30:33.130Z,92942.34
2023-01-17T21:32:34.646Z,92915.03
2023-01-17T21:34:36.192Z,92920.66
2023-01-17T21:36:38.827Z,92904.31
2023-01-17T21:38:40.386Z,92903.34
2023-01-17T21:40:42.384Z,92903.13
2023-01-17T21:42:43.936Z,92883.75
2023-01-17T21:44:45.491Z,92893.28
2023-01-17T21:46:47.219Z,92878.81
2023-01-17T21:48:48.653Z,92905.66
2023-01-17T21:50:52.705Z,92846.84
2023-01-17T21:52:54.198Z,92852.47
2023-01-17T21:55:14.563Z,92881.31
2023-01-17T21:57:36.049Z,92878.56
2023-01-17T21:59:37.498Z,92858.38
2023-01-17T22:01:38.987Z,92871.72
2023-01-17T22:03:40.571Z,92872.09
2023-01-17T22:05:42.085Z,92898.38
2023-01-17T22:08:03.690Z,92878.38
2023-01-17T22:10:05.597Z,92888.72
2023-01-17T22:12:07.114Z,92830.69
2023-01-17T22:14:08.689Z,92859.38
2023-01-17T22:16:11.490Z,92891.94
2023-01-17T22:18:13.274Z,92880.63
2023-01-17T22:20:14.987Z,92889.47
2023-01-17T22:22:16.503Z,92880.78
2023-01-17T22:24:18.068Z,92901.56
2023-01-17T22:26:20.184Z,92907.19
2023-01-17T22:28:21.692Z,92926.19
2023-01-17T22:30:23.203Z,92905.53
2023-01-17T22:32:24.842Z,92921.72
2023-01-17T22:34:26.305Z,92894.59
2023-01-17T22:36:28.103Z,92949.38
2023-01-17T22:38:30.074Z,92932.56
2023-01-17T22:40:32.831Z,92931.75
2023-01-17T22:42:34.466Z,92943.94
2023-01-17T22:44:35.956Z,92914.81
2023-01-17T22:46:38.553Z,92906.34
2023-01-17T22:48:40.054Z,92901.47
2023-01-17T22:50:41.599Z,92893.34
2023-01-17T22:52:43.314Z,92915.19
2023-01-17T22:54:44.900Z,92897.22
2023-01-17T22:56:46.501Z,92908.31
2023-01-17T22:58:49.107Z,92871.09
2023-01-17T23:00:51.083Z,92899.44
2023-01-17T23:02:53.375Z,92951.53
2023-01-17T23:04:54.842Z,92935.78
2023-01-17T23:06:56.425Z,92944.69
2023-01-17T23:08:58.919Z,92903.06
2023-01-17T23:11:19.064Z,92927.75
2023-01-17T23:13:20.690Z,92925.97
2023-01-17T23:15:40.898Z,92908.00
2023-01-17T23:18:00.843Z,92900.56
2023-01-17T23:20:02.272Z,92919.75
2023-01-17T23:22:16.482Z,92928.22
2023-01-17T23:24:17.972Z,92946.41
2023-01-17T23:26:19.414Z,92905.03
2023-01-17T23:28:21.056Z,92884.59
2023-01-17T23:30:26.860Z,92877.22
2023-01-17T23:32:28.303Z,92887.75
2023-01-17T23:34:29.786Z,92892.81
2023-01-17T23:36:31.249Z,92895.25
2023-01-17T23:38:37.672Z,92948.00
2023-01-17T23:40:39.586Z,92933.41
2023-01-17T23:42:59.645Z,92933.88
2023-01-17T23:45:01.744Z,92897.88
2023-01-17T23:47:03.229Z,92911.22
2023-01-17T23:49:04.696Z,92940.78
2023-01-17T23:51:09.160Z,92922.56
2023-01-17T23:53:11.944Z,92918.91
2023-01-17T23:55:13.771Z,92893.00
2023-01-17T23:57:15.271Z,92900.63
2023-01-17T23:59:16.895Z,92903.66
